Terminal Aerodrome Forecast
Issued by NWS Raleigh/Durham, NC

Home | Current Version | Previous Version | Text Only | Print | Product List | Glossary On
Versions: 1 2 3 4 5 6 7 8 9 10 11 12 13 14 15 16 17 18 19 20 21 22 23 24 25 26 27 28 29 30 31 32 33
000
FTUS42 KRAH 010002 AAA
TAFGSO
TAF AMD
KGSO 010002Z 0100/0124 07010KT 3SM -DZ BR BKN004 OVC007
     FM010300 09008KT 5SM BR OVC008
      TEMPO 0104/0108 3SM -RA BR OVC005
     FM010800 12006KT 3SM -RA BR OVC004
     FM011400 19009KT 6SM BR OVC008
     FM011800 20008G16KT P6SM BKN300 PROB30 0118/0124 P6SM -TSRA
      BKN050CB=

USA.gov is the U.S. government's official web portal to all federal, state and local government web resources and services.